createdAt,value
2019-05-18T00:01:09.184Z,23.70
2019-05-18T00:03:38.982Z,23.53
2019-05-18T00:06:08.738Z,26.73
2019-05-18T00:08:38.381Z,24.53
2019-05-18T00:11:08.281Z,24.30
2019-05-18T00:13:37.972Z,23.73
2019-05-18T00:16:07.742Z,25.67
2019-05-18T00:18:37.490Z,25.37
2019-05-18T00:21:07.471Z,25.47
2019-05-18T00:23:37.495Z,24.90
2019-05-18T00:26:07.401Z,24.33
2019-05-18T00:28:37.010Z,24.60
2019-05-18T00:31:06.657Z,25.40
2019-05-18T00:33:36.190Z,23.23
2019-05-18T00:36:06.232Z,24.10
2019-05-18T00:38:35.844Z,22.50
2019-05-18T00:41:05.465Z,23.73
2019-05-18T00:43:34.986Z,25.20
2019-05-18T00:46:05.960Z,23.90
2019-05-18T00:48:35.560Z,24.80
2019-05-18T00:51:05.114Z,24.10
2019-05-18T00:53:34.762Z,23.30
2019-05-18T00:56:04.442Z,22.70
2019-05-18T00:58:36.951Z,25.37
2019-05-18T01:01:06.964Z,22.67
2019-05-18T01:03:36.563Z,23.87
2019-05-18T01:06:06.321Z,23.73
2019-05-18T01:08:35.944Z,23.90
2019-05-18T01:11:06.097Z,25.40
2019-05-18T01:13:35.715Z,23.50
2019-05-18T01:16:05.441Z,23.60
2019-05-18T01:18:34.945Z,24.17
2019-05-18T01:21:04.605Z,24.10
2019-05-18T01:23:35.995Z,22.90
2019-05-18T01:26:05.642Z,24.63
2019-05-18T01:28:35.153Z,24.70
2019-05-18T01:31:04.849Z,22.90
2019-05-18T01:33:36.080Z,24.67
2019-05-18T01:36:05.772Z,25.27
2019-05-18T01:38:35.379Z,24.50
2019-05-18T01:41:05.265Z,25.20
2019-05-18T01:43:34.969Z,25.40
2019-05-18T01:46:06.466Z,25.10
2019-05-18T01:48:36.146Z,24.70
2019-05-18T01:51:07.468Z,25.77
2019-05-18T01:53:37.015Z,26.30
2019-05-18T01:56:06.632Z,26.13
2019-05-18T01:58:36.240Z,25.80
2019-05-18T02:01:06.044Z,26.40
2019-05-18T02:03:35.614Z,25.70
2019-05-18T02:06:05.316Z,27.00
2019-05-18T02:08:37.774Z,26.77
2019-05-18T02:11:07.504Z,26.33
2019-05-18T02:13:39.739Z,26.17
2019-05-18T02:16:09.292Z,28.13
2019-05-18T02:18:38.883Z,27.13
2019-05-18T02:21:08.424Z,28.13
2019-05-18T02:23:37.987Z,28.17
2019-05-18T02:26:07.581Z,28.33
2019-05-18T02:28:37.254Z,27.97
2019-05-18T02:31:07.053Z,28.70
2019-05-18T02:33:36.621Z,27.67
2019-05-18T02:36:06.428Z,27.80
2019-05-18T02:38:36.122Z,26.03
2019-05-18T02:41:05.694Z,26.33
2019-05-18T02:43:36.862Z,26.70
2019-05-18T02:46:06.568Z,29.43
2019-05-18T02:48:49.019Z,28.57
2019-05-18T02:51:11.126Z,28.20
2019-05-18T02:53:39.318Z,27.57
2019-05-18T02:56:08.944Z,25.40
2019-05-18T02:58:38.551Z,26.43
2019-05-18T03:01:11.299Z,27.70
2019-05-18T03:03:40.823Z,26.27
2019-05-18T03:06:10.528Z,27.60
2019-05-18T03:08:40.479Z,26.80
2019-05-18T03:11:10.120Z,25.87
2019-05-18T03:13:39.710Z,25.97
2019-05-18T03:16:09.481Z,26.30
2019-05-18T03:18:39.304Z,26.20
2019-05-18T03:21:08.842Z,28.07
2019-05-18T03:23:38.535Z,27.13
2019-05-18T03:26:08.106Z,27.87
2019-05-18T03:28:37.703Z,25.63
2019-05-18T03:31:07.433Z,25.53
2019-05-18T03:33:36.938Z,26.37
2019-05-18T03:36:06.604Z,25.33
2019-05-18T03:38:36.300Z,25.77
2019-05-18T03:41:05.910Z,26.50
2019-05-18T03:43:35.533Z,24.80
2019-05-18T03:46:05.227Z,25.40
2019-05-18T03:48:34.819Z,25.77
2019-05-18T03:51:04.691Z,24.90
2019-05-18T03:53:35.281Z,24.47
2019-05-18T03:56:04.977Z,24.70
2019-05-18T03:58:34.515Z,24.43
2019-05-18T04:01:04.192Z,26.37
2019-05-18T04:03:33.781Z,24.03
2019-05-18T04:06:03.488Z,24.50
2019-05-18T04:08:33.192Z,25.27
2019-05-18T04:11:02.732Z,25.27
2019-05-18T04:13:34.287Z,25.83
2019-05-18T04:16:05.742Z,24.17
2019-05-18T04:18:35.256Z,22.37
2019-05-18T04:21:08.059Z,22.17
2019-05-18T04:23:37.650Z,23.50
2019-05-18T04:26:07.240Z,23.67
2019-05-18T04:28:36.757Z,22.80
2019-05-18T04:31:06.823Z,22.77
2019-05-18T04:33:36.466Z,21.93
2019-05-18T04:36:06.153Z,22.07
2019-05-18T04:38:35.787Z,24.10
2019-05-18T04:41:05.567Z,23.23
2019-05-18T04:43:35.103Z,22.50
2019-05-18T04:46:04.882Z,22.87
2019-05-18T04:48:34.467Z,22.53
2019-05-18T04:51:04.114Z,22.80
2019-05-18T04:53:34.878Z,22.10
2019-05-18T04:56:04.563Z,20.50
2019-05-18T04:58:34.143Z,22.00
2019-05-18T05:01:03.779Z,22.30
2019-05-18T05:03:33.498Z,23.93
2019-05-18T05:06:03.022Z,22.83
2019-05-18T05:08:32.634Z,21.47
2019-05-18T05:11:02.202Z,21.87
2019-05-18T05:13:32.221Z,22.27
2019-05-18T05:16:02.994Z,23.47
2019-05-18T05:18:32.671Z,21.80
2019-05-18T05:21:02.195Z,22.80
2019-05-18T05:23:31.779Z,23.40
2019-05-18T05:26:01.329Z,23.50
2019-05-18T05:28:30.958Z,21.87
2019-05-18T05:31:00.686Z,22.00
2019-05-18T05:33:30.208Z,23.10
2019-05-18T05:35:59.814Z,23.90
2019-05-18T05:38:29.763Z,21.83
2019-05-18T05:40:59.521Z,22.50
2019-05-18T05:43:29.084Z,21.60
2019-05-18T05:45:58.638Z,22.37
2019-05-18T05:48:28.171Z,23.47
2019-05-18T05:50:57.746Z,22.50
2019-05-18T05:53:27.410Z,21.83
2019-05-18T05:55:57.014Z,22.20
2019-05-18T05:58:26.525Z,22.40
2019-05-18T06:00:56.278Z,20.83
2019-05-18T06:03:25.876Z,22.30
2019-05-18T06:05:55.497Z,21.03
2019-05-18T06:08:25.102Z,21.47
2019-05-18T06:10:54.738Z,21.33
2019-05-18T06:13:24.280Z,21.20
2019-05-18T06:15:55.823Z,22.87
2019-05-18T06:18:25.432Z,21.17
2019-05-18T06:20:55.025Z,20.23
2019-05-18T06:23:25.695Z,21.83
2019-05-18T06:25:55.291Z,21.80
2019-05-18T06:28:24.881Z,21.30
2019-05-18T06:30:56.140Z,21.57
2019-05-18T06:33:25.685Z,21.33
2019-05-18T06:35:55.253Z,20.53
2019-05-18T06:38:24.803Z,19.87
2019-05-18T06:40:54.419Z,18.57
2019-05-18T06:43:24.028Z,17.63
2019-05-18T06:45:53.772Z,18.80
2019-05-18T06:48:23.400Z,19.90
2019-05-18T06:51:06.686Z,17.67
2019-05-18T06:53:26.162Z,17.40
2019-05-18T06:55:56.276Z,17.70
2019-05-18T06:58:27.399Z,17.47
2019-05-18T07:00:57.230Z,17.03
2019-05-18T07:03:26.892Z,17.00
2019-05-18T07:05:56.482Z,17.10
2019-05-18T07:08:26.063Z,16.47
2019-05-18T07:10:55.796Z,17.17
2019-05-18T07:13:25.323Z,16.40
2019-05-18T07:15:54.991Z,16.50
2019-05-18T07:18:24.847Z,17.30
2019-05-18T07:20:54.507Z,16.30
2019-05-18T07:23:24.469Z,14.67
2019-05-18T07:25:54.117Z,16.07
2019-05-18T07:28:23.807Z,16.77
2019-05-18T07:30:53.380Z,15.17
2019-05-18T07:33:23.114Z,15.37
2019-05-18T07:35:52.840Z,14.17
2019-05-18T07:38:22.561Z,15.00
2019-05-18T07:40:52.367Z,15.47
2019-05-18T07:43:22.239Z,14.00
2019-05-18T07:45:52.900Z,14.00
2019-05-18T07:48:22.717Z,14.67
2019-05-18T07:50:52.590Z,15.53
2019-05-18T07:53:22.447Z,15.37
2019-05-18T07:55:52.019Z,15.00
2019-05-18T07:58:21.641Z,15.20
2019-05-18T08:00:51.185Z,14.40
2019-05-18T08:03:20.778Z,14.20
2019-05-18T08:05:50.373Z,14.43
2019-05-18T08:08:22.087Z,12.60
2019-05-18T08:10:51.658Z,12.73
2019-05-18T08:13:21.430Z,14.30
2019-05-18T08:15:51.128Z,11.80
2019-05-18T08:18:20.689Z,13.90
2019-05-18T08:20:50.366Z,13.83
2019-05-18T08:23:20.255Z,14.63
2019-05-18T08:25:49.823Z,14.10
2019-05-18T08:28:19.328Z,13.73
2019-05-18T08:30:49.193Z,14.00
2019-05-18T08:33:18.714Z,12.47
2019-05-18T08:35:48.253Z,13.53
2019-05-18T08:38:17.934Z,13.90
2019-05-18T08:40:47.879Z,13.43
2019-05-18T08:43:17.566Z,13.03
2019-05-18T08:45:47.157Z,13.43
2019-05-18T08:48:16.754Z,14.17
2019-05-18T08:50:46.505Z,13.20
2019-05-18T08:53:16.456Z,13.60
2019-05-18T08:55:46.203Z,12.53
2019-05-18T08:58:15.802Z,11.93
2019-05-18T09:00:45.728Z,10.13
2019-05-18T09:03:15.514Z,9.90
2019-05-18T09:05:45.558Z,10.43
2019-05-18T09:08:15.379Z,10.00
2019-05-18T09:10:44.980Z,9.70
2019-05-18T09:13:14.558Z,9.90
2019-05-18T09:15:45.829Z,10.53
2019-05-18T09:18:15.357Z,11.67
2019-05-18T09:20:44.942Z,10.87
2019-05-18T09:23:14.730Z,9.97
2019-05-18T09:25:44.564Z,11.27
2019-05-18T09:28:14.624Z,11.80
2019-05-18T09:30:44.575Z,13.30
2019-05-18T09:33:14.333Z,12.97
2019-05-18T09:35:44.003Z,14.63
2019-05-18T09:38:13.966Z,15.23
2019-05-18T09:40:43.779Z,13.97
2019-05-18T09:43:13.883Z,13.93
2019-05-18T09:45:44.069Z,12.80
2019-05-18T09:48:13.847Z,16.90
2019-05-18T09:50:43.446Z,14.00
2019-05-18T09:53:13.227Z,13.43
2019-05-18T09:55:42.849Z,13.70
2019-05-18T09:58:12.541Z,12.73
2019-05-18T10:00:42.323Z,12.90
2019-05-18T10:03:12.175Z,13.10
2019-05-18T10:05:41.797Z,12.73
2019-05-18T10:08:11.397Z,12.43
2019-05-18T10:10:41.062Z,11.07
2019-05-18T10:13:10.810Z,9.90
2019-05-18T10:15:40.594Z,10.63
2019-05-18T10:18:10.344Z,10.03
2019-05-18T10:20:39.915Z,9.63
2019-05-18T10:23:14.024Z,8.90
2019-05-18T10:25:43.899Z,8.73
2019-05-18T10:28:13.614Z,8.80
2019-05-18T10:30:43.361Z,9.40
2019-05-18T10:33:13.111Z,8.57
2019-05-18T10:35:44.358Z,8.30
2019-05-18T10:38:17.310Z,9.73
2019-05-18T10:40:47.122Z,9.83
2019-05-18T10:43:16.764Z,9.97
2019-05-18T10:45:46.489Z,10.00
2019-05-18T10:48:16.523Z,8.37
2019-05-18T10:50:46.265Z,8.80
2019-05-18T10:53:27.851Z,10.03
2019-05-18T10:55:47.375Z,7.87
2019-05-18T10:58:17.111Z,7.53
2019-05-18T11:00:48.401Z,7.80
2019-05-18T11:03:18.347Z,8.17
2019-05-18T11:05:47.955Z,7.93
2019-05-18T11:08:17.651Z,8.87
2019-05-18T11:10:47.319Z,7.70
2019-05-18T11:13:17.426Z,8.30
2019-05-18T11:15:52.268Z,8.10
2019-05-18T11:18:21.904Z,8.10
2019-05-18T11:20:51.576Z,7.53
2019-05-18T11:23:21.136Z,7.60
2019-05-18T11:25:50.760Z,7.57
2019-05-18T11:28:20.292Z,8.27
2019-05-18T11:30:50.366Z,7.67
2019-05-18T11:33:19.896Z,8.63
2019-05-18T11:35:49.478Z,7.60
2019-05-18T11:38:20.669Z,6.90
2019-05-18T11:40:50.349Z,8.33
2019-05-18T11:43:19.990Z,6.97
2019-05-18T11:45:49.711Z,7.87
2019-05-18T11:48:19.287Z,7.20
2019-05-18T11:50:49.263Z,7.30
2019-05-18T11:53:19.004Z,7.70
2019-05-18T11:55:48.532Z,7.00
2019-05-18T11:58:20.925Z,8.20
2019-05-18T12:00:50.750Z,7.60
2019-05-18T12:03:20.414Z,7.57
2019-05-18T12:05:49.962Z,7.00
2019-05-18T12:08:21.149Z,6.60
2019-05-18T12:10:52.234Z,6.80
2019-05-18T12:13:22.507Z,6.33
2019-05-18T12:15:54.006Z,6.30
2019-05-18T12:18:25.191Z,6.97
2019-05-18T12:20:54.804Z,7.83
2019-05-18T12:23:24.564Z,6.07
2019-05-18T12:25:54.161Z,6.20
2019-05-18T12:28:23.870Z,6.90
2019-05-18T12:30:53.751Z,6.30
2019-05-18T12:33:23.495Z,6.60
2019-05-18T12:35:53.132Z,7.43
2019-05-18T12:38:24.431Z,6.60
2019-05-18T12:40:54.737Z,6.63
2019-05-18T12:43:24.378Z,6.30
2019-05-18T12:45:54.143Z,6.00
2019-05-18T12:48:25.321Z,6.73
2019-05-18T12:50:58.176Z,6.30
2019-05-18T12:53:28.167Z,6.60
2019-05-18T12:55:57.818Z,6.00
2019-05-18T12:58:27.326Z,6.90
2019-05-18T13:00:56.966Z,6.37
2019-05-18T13:03:28.356Z,6.30
2019-05-18T13:06:00.748Z,6.50
2019-05-18T13:08:32.566Z,6.40
2019-05-18T13:11:02.173Z,6.27
2019-05-18T13:13:31.961Z,6.10
2019-05-18T13:16:01.673Z,6.03
2019-05-18T13:18:31.292Z,6.30
2019-05-18T13:21:00.988Z,6.07
2019-05-18T13:23:30.584Z,6.40
2019-05-18T13:26:03.222Z,6.10
2019-05-18T13:28:32.947Z,6.10
2019-05-18T13:31:02.932Z,5.60
2019-05-18T13:33:32.717Z,5.80
2019-05-18T13:36:02.370Z,5.70
2019-05-18T13:38:32.075Z,5.50
2019-05-18T13:41:01.731Z,5.90
2019-05-18T13:43:31.354Z,6.00
2019-05-18T13:46:01.271Z,6.23
2019-05-18T13:48:30.861Z,6.30
2019-05-18T13:51:00.677Z,6.00
2019-05-18T13:53:34.797Z,6.13
2019-05-18T13:56:04.392Z,6.80
2019-05-18T13:58:34.107Z,6.90
2019-05-18T14:01:03.841Z,6.77
2019-05-18T14:03:33.535Z,7.10
2019-05-18T14:06:03.233Z,6.43
2019-05-18T14:08:33.045Z,6.80
2019-05-18T14:11:05.069Z,6.30
2019-05-18T14:13:34.753Z,6.60
2019-05-18T14:16:04.970Z,7.17
2019-05-18T14:18:34.490Z,6.70
2019-05-18T14:21:04.314Z,6.43
2019-05-18T14:23:34.344Z,7.17
2019-05-18T14:26:04.366Z,6.63
2019-05-18T14:28:33.962Z,6.30
2019-05-18T14:31:03.630Z,7.13
2019-05-18T14:33:33.432Z,5.93
2019-05-18T14:36:03.231Z,7.03
2019-05-18T14:38:34.719Z,5.80
2019-05-18T14:41:04.484Z,5.80
2019-05-18T14:43:34.021Z,6.77
2019-05-18T14:46:03.734Z,6.80
2019-05-18T14:48:33.388Z,5.83
2019-05-18T14:51:03.037Z,6.83
2019-05-18T14:53:32.652Z,6.40
2019-05-18T14:56:02.168Z,6.63
2019-05-18T14:58:31.775Z,6.47
2019-05-18T15:01:01.499Z,6.00
2019-05-18T15:03:31.098Z,6.30
2019-05-18T15:06:03.204Z,7.20
2019-05-18T15:08:32.935Z,6.40
2019-05-18T15:11:02.824Z,6.80
2019-05-18T15:13:32.723Z,6.67
2019-05-18T15:16:07.019Z,6.30
2019-05-18T15:18:36.580Z,6.10
2019-05-18T15:21:06.300Z,5.90
2019-05-18T15:23:35.869Z,5.83
2019-05-18T15:26:05.570Z,5.73
2019-05-18T15:28:36.039Z,4.83
2019-05-18T15:31:05.725Z,5.50
2019-05-18T15:33:35.450Z,6.40
2019-05-18T15:36:05.272Z,5.87
2019-05-18T15:38:35.211Z,6.33
2019-05-18T15:41:06.365Z,6.10
2019-05-18T15:43:35.933Z,5.60
2019-05-18T15:46:05.653Z,5.30
2019-05-18T15:48:35.405Z,5.80
2019-05-18T15:51:05.063Z,5.70
2019-05-18T15:53:38.615Z,5.40
2019-05-18T15:56:08.272Z,5.40
2019-05-18T15:58:37.972Z,5.17
2019-05-18T16:01:07.661Z,5.10
2019-05-18T16:03:37.748Z,4.57
2019-05-18T16:06:07.352Z,5.17
2019-05-18T16:08:37.013Z,4.53
2019-05-18T16:11:06.658Z,5.73
2019-05-18T16:13:36.261Z,5.80
2019-05-18T16:16:07.831Z,5.13
2019-05-18T16:18:37.338Z,5.90
2019-05-18T16:21:06.932Z,4.57
2019-05-18T16:23:36.516Z,5.20
2019-05-18T16:26:20.802Z,5.00
2019-05-18T16:28:37.452Z,5.20
2019-05-18T16:31:07.135Z,4.60
2019-05-18T16:33:36.885Z,5.40
2019-05-18T16:36:06.572Z,4.90
2019-05-18T16:38:36.775Z,4.77
2019-05-18T16:41:06.619Z,5.23
2019-05-18T16:43:36.286Z,4.93
2019-05-18T16:46:06.074Z,4.63
2019-05-18T16:48:39.546Z,5.20
2019-05-18T16:51:09.347Z,5.90
2019-05-18T16:53:40.255Z,5.67
2019-05-18T16:56:10.428Z,4.83
2019-05-18T16:58:40.153Z,5.30
2019-05-18T17:01:09.860Z,5.00
2019-05-18T17:03:41.154Z,5.47
2019-05-18T17:06:11.436Z,5.00
2019-05-18T17:08:40.990Z,5.27
2019-05-18T17:11:10.613Z,5.77
2019-05-18T17:13:42.726Z,5.30
2019-05-18T17:16:12.457Z,5.13
2019-05-18T17:18:44.777Z,5.10
2019-05-18T17:21:16.189Z,4.53
2019-05-18T17:23:45.786Z,5.10
2019-05-18T17:26:15.690Z,5.23
2019-05-18T17:28:45.745Z,5.50
2019-05-18T17:31:15.402Z,5.70
2019-05-18T17:33:45.315Z,5.20
2019-05-18T17:36:14.936Z,4.70
2019-05-18T17:38:44.593Z,4.50
2019-05-18T17:41:14.525Z,4.90
2019-05-18T17:43:44.191Z,5.17
2019-05-18T17:46:13.921Z,5.47
2019-05-18T17:48:43.726Z,5.00
2019-05-18T17:51:13.569Z,5.10
2019-05-18T17:53:43.216Z,5.47
2019-05-18T17:56:13.069Z,5.60
2019-05-18T17:58:42.691Z,4.63
2019-05-18T18:01:12.395Z,5.27
2019-05-18T18:03:41.969Z,4.93
2019-05-18T18:06:11.679Z,5.70
2019-05-18T18:08:41.584Z,5.90
2019-05-18T18:11:11.939Z,4.60
2019-05-18T18:13:44.804Z,4.93
2019-05-18T18:16:14.491Z,5.10
2019-05-18T18:18:44.066Z,5.07
2019-05-18T18:21:13.841Z,5.20
2019-05-18T18:23:43.419Z,5.77
2019-05-18T18:26:13.197Z,5.30
2019-05-18T18:28:42.965Z,5.77
2019-05-18T18:31:12.640Z,5.17
2019-05-18T18:33:42.275Z,5.63
2019-05-18T18:36:11.913Z,5.40
2019-05-18T18:38:41.513Z,5.17
2019-05-18T18:41:11.172Z,6.70
2019-05-18T18:43:40.998Z,7.53
2019-05-18T18:46:10.990Z,6.67
2019-05-18T18:48:40.526Z,6.43
2019-05-18T18:51:10.160Z,6.80
2019-05-18T18:53:40.027Z,6.00
2019-05-18T18:56:10.027Z,6.67
2019-05-18T18:58:43.018Z,6.30
2019-05-18T19:01:12.780Z,5.47
2019-05-18T19:03:42.524Z,8.00
2019-05-18T19:06:15.274Z,7.13
2019-05-18T19:08:45.109Z,7.97
2019-05-18T19:11:14.851Z,7.50
2019-05-18T19:13:45.876Z,7.00
2019-05-18T19:16:15.848Z,7.97
2019-05-18T19:18:45.561Z,8.63
2019-05-18T19:21:17.044Z,8.30
2019-05-18T19:23:47.043Z,7.63
2019-05-18T19:26:16.959Z,7.90
2019-05-18T19:28:48.385Z,9.70
2019-05-18T19:31:18.094Z,10.87
2019-05-18T19:33:51.256Z,10.13
2019-05-18T19:36:26.495Z,9.07
2019-05-18T19:39:02.477Z,9.37
2019-05-18T19:41:32.698Z,10.70
2019-05-18T19:44:02.341Z,10.80
2019-05-18T19:46:31.936Z,10.70
2019-05-18T19:49:01.715Z,13.20
2019-05-18T19:51:31.404Z,11.73
2019-05-18T19:54:01.098Z,11.90
2019-05-18T19:56:38.167Z,11.90
2019-05-18T19:59:02.477Z,10.50
2019-05-18T20:01:32.079Z,12.23
2019-05-18T20:04:01.816Z,13.30
2019-05-18T20:06:31.801Z,14.33
2019-05-18T20:09:01.657Z,15.73
2019-05-18T20:11:34.309Z,14.37
2019-05-18T20:14:04.186Z,16.37
2019-05-18T20:16:33.865Z,15.43
2019-05-18T20:19:04.062Z,15.43
2019-05-18T20:21:33.908Z,15.87
2019-05-18T20:24:05.329Z,16.23
2019-05-18T20:26:38.199Z,16.73
2019-05-18T20:29:12.572Z,16.77
2019-05-18T20:31:42.369Z,16.30
2019-05-18T20:34:12.137Z,15.60
2019-05-18T20:36:44.435Z,17.03
2019-05-18T20:39:14.170Z,18.87
2019-05-18T20:41:43.752Z,18.20
2019-05-18T20:44:13.637Z,18.23
2019-05-18T20:46:45.430Z,18.90
2019-05-18T20:49:15.088Z,18.67
2019-05-18T20:51:44.693Z,19.17
2019-05-18T20:54:14.422Z,19.80
2019-05-18T20:56:44.028Z,19.03
2019-05-18T20:59:13.953Z,18.90
2019-05-18T21:01:43.733Z,18.80
2019-05-18T21:04:13.422Z,20.47
2019-05-18T21:06:45.488Z,20.37
2019-05-18T21:09:15.325Z,19.50
2019-05-18T21:11:44.866Z,20.67
2019-05-18T21:14:14.498Z,22.67
2019-05-18T21:16:44.060Z,22.23
2019-05-18T21:19:13.735Z,24.10
2019-05-18T21:21:43.353Z,23.23
2019-05-18T21:24:13.064Z,21.83
2019-05-18T21:26:42.992Z,22.20
2019-05-18T21:29:12.511Z,23.50
2019-05-18T21:31:44.793Z,24.20
2019-05-18T21:34:14.415Z,23.40
2019-05-18T21:36:44.099Z,22.60
2019-05-18T21:39:13.795Z,22.63
2019-05-18T21:41:43.383Z,24.37
2019-05-18T21:44:12.926Z,24.13
2019-05-18T21:46:42.668Z,25.60
2019-05-18T21:49:12.271Z,23.57
2019-05-18T21:51:41.872Z,24.47
2019-05-18T21:54:11.719Z,24.23
2019-05-18T21:56:41.307Z,24.27
2019-05-18T21:59:12.363Z,25.13
2019-05-18T22:01:42.415Z,25.33
2019-05-18T22:04:11.974Z,24.83
2019-05-18T22:06:41.915Z,27.20
2019-05-18T22:09:11.712Z,26.83
2019-05-18T22:11:41.297Z,26.63
2019-05-18T22:14:10.900Z,27.80
2019-05-18T22:16:40.789Z,27.83
2019-05-18T22:19:10.301Z,27.23
2019-05-18T22:21:39.915Z,27.17
2019-05-18T22:24:09.484Z,25.63
2019-05-18T22:26:39.095Z,25.87
2019-05-18T22:29:08.700Z,27.40
2019-05-18T22:31:41.354Z,25.23
2019-05-18T22:34:11.032Z,25.57
2019-05-18T22:36:40.556Z,27.40
2019-05-18T22:39:13.470Z,28.10
2019-05-18T22:41:43.064Z,26.67
2019-05-18T22:44:12.736Z,26.97
2019-05-18T22:46:42.267Z,26.73
2019-05-18T22:49:11.809Z,27.67
2019-05-18T22:51:41.325Z,27.33
2019-05-18T22:54:10.945Z,26.80
2019-05-18T22:56:40.465Z,26.83
2019-05-18T22:59:10.036Z,25.73
2019-05-18T23:01:39.824Z,28.23
2019-05-18T23:04:09.379Z,27.47
2019-05-18T23:06:40.810Z,27.27
2019-05-18T23:09:10.589Z,29.10
2019-05-18T23:11:40.235Z,28.80
2019-05-18T23:14:09.901Z,27.03
2019-05-18T23:16:39.553Z,27.90
2019-05-18T23:19:09.169Z,27.70
2019-05-18T23:21:38.694Z,29.20
2019-05-18T23:24:09.360Z,27.80
2019-05-18T23:26:39.022Z,28.03
2019-05-18T23:29:08.552Z,27.73
2019-05-18T23:31:38.475Z,29.47
2019-05-18T23:34:08.096Z,27.80
2019-05-18T23:36:37.640Z,28.40
2019-05-18T23:39:07.799Z,29.47
2019-05-18T23:41:37.485Z,28.63
2019-05-18T23:44:07.169Z,27.27
2019-05-18T23:46:37.004Z,28.33
2019-05-18T23:49:10.719Z,29.17
2019-05-18T23:51:38.284Z,29.63
2019-05-18T23:54:08.400Z,27.30
2019-05-18T23:56:37.995Z,28.80
2019-05-18T23:59:07.568Z,27.70
